Time;durP1;ratioP1;P1;durP2;ratioP2;P2;SDS_P1;SDS_P2;PMS_P1;PMS_P2;Temp;Humidity;BMP_temperature;BMP_pressure;BME280_temperature;BME280_humidity;BME280_pressure;Samples;Min_cycle;Max_cycle;Signal;HPM_P1;HPM_P2
2021/04/26 00:01:31;;;;;;;1.37;1.23;;;;;;;9.31;36.55;102387.97;6158583;28;20262;-52
2021/04/26 00:04:53;;;;;;;1.27;0.90;;;;;;;9.22;36.64;102386.03;6151404;28;20321;-54
2021/04/26 00:08:13;;;;;;;5.77;1.60;;;;;;;9.07;36.94;102380.50;6166430;28;20454;-56
2021/04/26 00:11:33;;;;;;;4.47;1.20;;;;;;;9.08;37.56;102390.06;6167133;28;20238;-54
2021/04/26 00:14:53;;;;;;;2.00;1.50;;;;;;;9.14;37.06;102373.72;6166740;28;20231;-53
2021/04/26 00:18:14;;;;;;;4.67;1.37;;;;;;;8.94;37.91;102373.31;6168371;28;20301;-55
2021/04/26 00:21:36;;;;;;;3.53;1.23;;;;;;;9.27;37.10;102374.03;6164534;28;20238;-54
2021/04/26 00:24:56;;;;;;;2.83;1.47;;;;;;;9.06;37.58;102370.97;6163903;28;20230;-56
2021/04/26 00:28:16;;;;;;;3.77;1.73;;;;;;;8.97;37.88;102370.75;6163391;28;20230;-56
2021/04/26 00:31:37;;;;;;;2.90;1.50;;;;;;;8.97;37.85;102370.75;6130829;28;20226;-54
2021/04/26 00:34:58;;;;;;;2.70;1.23;;;;;;;8.97;37.85;102369.03;6157827;28;20242;-53
2021/04/26 00:38:19;;;;;;;1.77;0.90;;;;;;;8.86;37.73;102366.19;6158819;28;20711;-56
2021/04/26 00:41:40;;;;;;;2.83;1.20;;;;;;;8.72;38.18;102357.19;6160513;28;20235;-56
2021/04/26 00:45:01;;;;;;;3.10;1.30;;;;;;;8.75;37.84;102359.88;6165882;28;20227;-55
2021/04/26 00:48:21;;;;;;;3.20;1.47;;;;;;;8.71;38.29;102365.84;6163456;28;20234;-54
2021/04/26 00:51:42;;;;;;;5.23;1.50;;;;;;;8.83;38.00;102363.53;6145025;28;20813;-53
2021/04/26 00:55:04;;;;;;;2.50;1.20;;;;;;;8.48;38.89;102367.88;6162528;28;20323;-55
2021/04/26 00:58:25;;;;;;;2.50;1.63;;;;;;;8.64;38.43;102350.94;6160533;28;20227;-54
2021/04/26 01:01:46;;;;;;;0.97;0.90;;;;;;;8.50;38.76;102355.81;6159226;28;20238;-55
2021/04/26 01:05:09;;;;;;;2.07;1.20;;;;;;;8.45;38.68;102350.53;6161881;28;20817;-47
2021/04/26 01:08:30;;;;;;;1.87;1.03;;;;;;;8.47;38.44;102353.13;6159067;28;20656;-55
2021/04/26 01:12:12;;;;;;;3.63;1.60;;;;;;;8.37;38.56;102344.22;6156611;28;20242;-56
2021/04/26 01:15:39;;;;;;;2.70;1.00;;;;;;;8.40;38.93;102349.50;6158283;28;20487;-54
2021/04/26 01:19:11;;;;;;;1.00;0.90;;;;;;;8.51;38.73;102343.72;6173462;28;20329;-56
2021/04/26 01:22:43;;;;;;;1.30;0.90;;;;;;;8.34;39.06;102351.06;6155395;28;20237;-52
2021/04/26 01:26:05;;;;;;;1.90;1.07;;;;;;;8.46;38.79;102336.69;6159288;28;20231;-52
2021/04/26 01:29:48;;;;;;;3.60;1.23;;;;;;;8.53;38.54;102334.22;6166525;28;20243;-52
2021/04/26 01:33:13;;;;;;;3.90;1.10;;;;;;;8.36;38.44;102328.63;6137503;28;20222;-54
2021/04/26 01:36:39;;;;;;;1.73;1.00;;;;;;;8.40;38.71;102346.91;6157699;28;20262;-56
2021/04/26 01:40:01;;;;;;;3.27;1.17;;;;;;;8.44;38.64;102333.19;6135210;28;20235;-54
2021/04/26 01:43:26;;;;;;;1.77;1.00;;;;;;;8.23;39.27;102343.88;6167075;28;20262;-52
2021/04/26 01:46:48;;;;;;;1.07;0.80;;;;;;;8.27;39.43;102345.72;6157041;28;20226;-56
2021/04/26 01:50:12;;;;;;;2.63;0.73;;;;;;;8.26;39.37;102345.69;6157738;28;20226;-53
2021/04/26 01:53:33;;;;;;;2.77;1.33;;;;;;;7.98;40.35;102334.59;6152452;28;20246;-52
2021/04/26 01:56:55;;;;;;;5.30;1.90;;;;;;;7.93;40.42;102336.22;6157014;28;20226;-56
2021/04/26 02:00:19;;;;;;;1.50;1.00;;;;;;;7.99;40.49;102338.09;6152286;28;20612;-55
2021/04/26 02:03:55;;;;;;;1.93;1.00;;;;;;;7.80;41.03;102336.72;6147565;28;20226;-52
2021/04/26 02:07:37;;;;;;;1.30;1.20;;;;;;;7.85;41.03;102329.91;6148835;28;20498;-55
2021/04/26 02:11:13;;;;;;;1.97;1.30;;;;;;;7.61;41.73;102331.03;6171121;28;20231;-56
2021/04/26 02:14:36;;;;;;;2.30;1.23;;;;;;;7.73;41.24;102329.59;6157837;28;20554;-52
2021/04/26 02:17:58;;;;;;;1.43;0.93;;;;;;;7.39;41.68;102328.69;6168041;28;20235;-54
2021/04/26 02:21:18;;;;;;;1.33;1.23;;;;;;;7.12;42.36;102323.59;6147635;28;20640;-55
2021/04/26 02:24:40;;;;;;;1.70;0.93;;;;;;;7.59;41.51;102324.91;6176036;28;20242;-52
2021/04/26 02:28:01;;;;;;;1.30;0.97;;;;;;;7.68;41.68;102325.19;6150983;28;20230;-54
2021/04/26 02:31:27;;;;;;;2.20;1.33;;;;;;;7.57;41.92;102328.31;6156940;28;20620;-50
2021/04/26 02:34:51;;;;;;;1.17;0.97;;;;;;;7.65;41.88;102325.06;6156108;28;20326;-54
2021/04/26 02:38:16;;;;;;;3.70;1.37;;;;;;;7.45;42.22;102321.09;6153435;28;20238;-53
2021/04/26 02:41:40;;;;;;;2.37;1.27;;;;;;;7.50;41.69;102324.66;6174976;28;20556;-54
2021/04/26 02:45:06;;;;;;;2.40;1.30;;;;;;;7.26;42.84;102323.13;6164881;28;20264;-54
2021/04/26 02:48:27;;;;;;;3.13;1.60;;;;;;;7.55;42.04;102317.91;6163910;28;20525;-54
2021/04/26 02:51:52;;;;;;;2.77;1.10;;;;;;;7.51;42.12;102329.03;6157632;28;20234;-52
2021/04/26 02:55:13;;;;;;;3.30;1.30;;;;;;;7.33;42.64;102323.31;6160277;28;20238;-56
2021/04/26 02:58:36;;;;;;;2.43;1.53;;;;;;;7.11;43.03;102314.91;6168919;28;20233;-54
2021/04/26 03:02:03;;;;;;;2.90;1.37;;;;;;;7.01;43.13;102318.97;6153825;28;20238;-50
2021/04/26 03:05:43;;;;;;;2.63;1.60;;;;;;;7.10;43.13;102315.78;6161043;28;20227;-56
2021/04/26 03:09:04;;;;;;;2.33;1.30;;;;;;;7.30;42.30;102324.97;6154948;28;20226;-53
2021/04/26 03:12:26;;;;;;;1.90;1.30;;;;;;;7.13;43.21;102315.84;6161836;28;20242;-54
2021/04/26 03:15:47;;;;;;;5.30;3.80;;;;;;;7.02;43.81;102314.69;6139150;28;20224;-55
2021/04/26 03:19:09;;;;;;;6.47;1.80;;;;;;;6.91;43.82;102311.75;6162327;28;20242;-55
2021/04/26 03:22:31;;;;;;;3.10;1.30;;;;;;;7.03;43.45;102306.06;6152980;28;20275;-55
2021/04/26 03:25:56;;;;;;;4.67;1.90;;;;;;;6.41;44.71;102309.34;6162555;28;20329;-52
2021/04/26 03:29:21;;;;;;;2.63;1.47;;;;;;;6.64;44.44;102306.63;6146686;28;20253;-50
2021/04/26 03:32:44;;;;;;;3.60;1.30;;;;;;;6.73;44.33;102306.91;6175876;28;20246;-53
2021/04/26 03:36:06;;;;;;;4.23;2.13;;;;;;;6.82;44.38;102299.38;6171567;28;20317;-55
2021/04/26 03:39:27;;;;;;;1.97;1.37;;;;;;;6.88;44.16;102299.59;6159437;28;20813;-52
2021/04/26 03:42:53;;;;;;;3.53;1.40;;;;;;;6.82;44.24;102301.97;6155674;28;20560;-52
2021/04/26 03:46:14;;;;;;;4.20;1.60;;;;;;;6.77;44.07;102298.41;6155685;28;20227;-54
2021/04/26 03:49:54;;;;;;;3.73;1.50;;;;;;;6.70;44.67;102291.25;6162791;28;20602;-56
2021/04/26 03:53:33;;;;;;;1.50;1.37;;;;;;;6.81;44.86;102292.47;6148020;28;20261;-55
2021/04/26 03:57:11;;;;;;;2.17;1.67;;;;;;;6.65;45.26;102290.22;6157294;28;20230;-54
2021/04/26 04:00:34;;;;;;;7.10;4.20;;;;;;;6.80;45.40;102295.88;6156248;28;20509;-56
2021/04/26 04:03:57;;;;;;;33.87;30.17;;;;;;;7.04;45.12;102292.28;6157675;28;20329;-56
2021/04/26 04:07:20;;;;;;;6.40;4.57;;;;;;;6.76;45.28;102294.03;6152353;28;20709;-54
2021/04/26 04:11:00;;;;;;;4.60;3.20;;;;;;;6.72;44.96;102286.13;6159870;28;20234;-50
2021/04/26 04:14:39;;;;;;;2.93;2.03;;;;;;;6.69;44.95;102280.03;6164712;28;20250;-55
2021/04/26 04:18:02;;;;;;;5.83;2.23;;;;;;;6.67;44.76;102296.38;6156794;28;20325;-54
2021/04/26 04:21:29;;;;;;;11.00;9.60;;;;;;;6.93;47.76;102288.50;6161420;28;20226;-52
2021/04/26 04:24:51;;;;;;;13.80;12.13;;;;;;;7.11;44.39;102278.66;6166083;28;20227;-54
2021/04/26 04:28:11;;;;;;;13.80;12.33;;;;;;;7.12;44.56;102283.00;6162433;28;20242;-56
2021/04/26 04:31:35;;;;;;;6.07;3.13;;;;;;;7.04;43.52;102279.34;6174461;28;20313;-54
2021/04/26 04:35:09;;;;;;;7.93;5.07;;;;;;;6.73;45.36;102272.34;6163922;28;20249;-54
2021/04/26 04:38:48;;;;;;;8.60;5.97;;;;;;;6.60;44.86;102271.97;6159741;28;20238;-52
2021/04/26 04:42:28;;;;;;;2.60;2.40;;;;;;;6.69;45.43;102276.59;6146447;28;20239;-54
2021/04/26 04:45:50;;;;;;;3.13;2.00;;;;;;;6.89;44.85;102269.41;6172942;28;20227;-51
2021/04/26 04:49:31;;;;;;;4.53;2.43;;;;;;;7.13;44.11;102274.38;6160771;28;20230;-53
2021/04/26 04:52:52;;;;;;;3.17;2.20;;;;;;;6.59;44.63;102269.34;6173346;28;20407;-55
2021/04/26 04:56:14;;;;;;;4.03;2.40;;;;;;;7.09;43.58;102272.56;6160693;28;20238;-55
2021/04/26 04:59:38;;;;;;;5.93;3.20;;;;;;;7.15;43.28;102272.72;6162801;28;20262;-55
2021/04/26 05:03:07;;;;;;;4.60;2.40;;;;;;;7.11;42.58;102270.88;6143090;28;20324;-51
2021/04/26 05:06:45;;;;;;;4.43;2.33;;;;;;;6.47;43.73;102262.94;6165039;28;20234;-57
2021/04/26 05:10:24;;;;;;;2.43;2.00;;;;;;;6.05;44.34;102259.91;6159875;28;20798;-54
2021/04/26 05:14:04;;;;;;;4.07;2.20;;;;;;;6.34;43.49;102263.44;6158916;28;20295;-56
2021/04/26 05:17:26;;;;;;;5.43;2.53;;;;;;;6.79;42.93;102260.47;6156693;28;20226;-52
2021/04/26 05:20:46;;;;;;;8.43;4.10;;;;;;;6.90;42.98;102256.50;6153421;28;20247;-53
2021/04/26 05:24:07;;;;;;;4.90;2.70;;;;;;;7.39;42.16;102261.31;6156000;28;20242;-52
2021/04/26 05:27:28;;;;;;;4.03;2.23;;;;;;;7.72;40.10;102261.31;6160843;28;20259;-53
2021/04/26 05:30:49;;;;;;;5.40;2.33;;;;;;;7.63;40.18;102266.25;6173498;28;20231;-53
2021/04/26 05:34:11;;;;;;;3.53;2.40;;;;;;;7.61;39.88;102268.78;6154117;28;20235;-54
2021/04/26 05:37:34;;;;;;;3.93;2.33;;;;;;;7.49;39.64;102274.53;6156301;28;20315;-55
2021/04/26 05:40:55;;;;;;;4.87;2.10;;;;;;;7.64;39.57;102279.25;6157861;28;20693;-54
2021/04/26 05:44:16;;;;;;;4.97;2.23;;;;;;;7.96;39.38;102271.41;6169140;28;20322;-51
2021/04/26 05:47:45;;;;;;;4.67;2.40;;;;;;;7.79;38.83;102280.50;6161143;28;20238;-55
2021/04/26 05:51:06;;;;;;;6.03;1.90;;;;;;;7.77;39.42;102274.38;6157049;28;20231;-53
2021/04/26 05:54:26;;;;;;;3.33;1.73;;;;;;;7.66;38.94;102272.41;6158403;28;20230;-55
2021/04/26 05:57:48;;;;;;;6.67;3.47;;;;;;;8.11;38.65;102265.72;6152717;28;20287;-55
2021/04/26 06:01:09;;;;;;;7.60;2.30;;;;;;;7.52;38.97;102271.13;6160877;28;20239;-55
2021/04/26 06:04:29;;;;;;;4.73;3.13;;;;;;;7.97;39.60;102267.09;6155755;28;20780;-52
2021/04/26 06:07:50;;;;;;;10.03;2.33;;;;;;;7.77;37.98;102269.19;6157057;28;20237;-58
2021/04/26 06:11:11;;;;;;;10.43;4.50;;;;;;;7.60;39.04;102266.16;6160165;28;20246;-57
2021/04/26 06:14:31;;;;;;;9.20;3.97;;;;;;;8.13;38.17;102255.41;6158401;28;20538;-53
2021/04/26 06:17:52;;;;;;;7.00;3.17;;;;;;;8.21;38.21;102257.31;6151911;28;20337;-57
2021/04/26 06:21:12;;;;;;;7.03;3.73;;;;;;;8.20;38.32;102257.28;6160821;28;20329;-54
2021/04/26 06:24:34;;;;;;;6.87;3.37;;;;;;;8.35;40.26;102255.03;6160733;28;20234;-54
2021/04/26 06:27:54;;;;;;;11.70;4.17;;;;;;;8.63;37.03;102253.13;6158877;28;20553;-53
2021/04/26 06:31:14;;;;;;;6.97;3.10;;;;;;;8.78;37.01;102256.06;6158066;28;20238;-52
2021/04/26 06:34:35;;;;;;;7.97;3.87;;;;;;;8.70;37.13;102244.59;6162667;28;20241;-56
2021/04/26 06:37:56;;;;;;;7.27;3.00;;;;;;;8.51;37.05;102251.13;6166420;28;20303;-56
2021/04/26 06:41:17;;;;;;;6.47;4.03;;;;;;;8.66;36.84;102250.56;6165580;28;20230;-54
2021/04/26 06:44:38;;;;;;;5.27;2.87;;;;;;;8.56;36.00;102243.44;6168880;28;20309;-55
2021/04/26 06:47:58;;;;;;;5.87;2.10;;;;;;;8.23;36.81;102247.84;6168066;28;20230;-54
2021/04/26 06:51:18;;;;;;;10.23;3.00;;;;;;;8.41;37.02;102242.25;6161301;28;20242;-55
2021/04/26 06:54:39;;;;;;;9.23;2.73;;;;;;;8.81;35.02;102245.72;6163703;28;20360;-56
2021/04/26 06:58:00;;;;;;;7.30;2.47;;;;;;;8.80;34.75;102248.28;6167569;28;20822;-54
2021/04/26 07:01:20;;;;;;;2.73;1.37;;;;;;;8.25;36.19;102247.91;6166003;28;20258;-52
2021/04/26 07:04:41;;;;;;;2.97;1.43;;;;;;;8.83;35.84;102244.00;6160107;28;20235;-54
2021/04/26 07:08:01;;;;;;;3.53;2.00;;;;;;;9.11;36.70;102238.50;6159723;28;20231;-52
2021/04/26 07:11:22;;;;;;;2.97;1.33;;;;;;;8.76;35.90;102230.88;6162205;28;20219;-53
2021/04/26 07:14:43;;;;;;;3.00;2.03;;;;;;;9.41;34.46;102230.41;6155795;28;20231;-55
2021/04/26 07:18:03;;;;;;;3.33;1.50;;;;;;;9.78;34.06;102223.25;6167266;28;20234;-55
2021/04/26 07:21:23;;;;;;;2.90;1.50;;;;;;;10.02;34.42;102223.66;6163726;28;20258;-54
2021/04/26 07:24:45;;;;;;;2.40;0.90;;;;;;;9.68;32.46;102231.78;6154644;28;20238;-57
2021/04/26 07:28:06;;;;;;;3.37;1.27;;;;;;;8.72;34.80;102229.06;6159477;28;20258;-55
2021/04/26 07:31:27;;;;;;;2.67;1.60;;;;;;;9.34;31.83;102221.63;6157045;28;20231;-55
2021/04/26 07:34:48;;;;;;;1.33;1.20;;;;;;;9.21;32.63;102227.47;6160411;28;20231;-51
2021/04/26 07:38:08;;;;;;;1.63;1.00;;;;;;;8.41;33.38;102218.91;6163095;28;20254;-55
2021/04/26 07:41:29;;;;;;;2.60;1.20;;;;;;;8.76;33.54;102225.66;6166175;28;20785;-56
2021/04/26 07:44:50;;;;;;;1.13;1.00;;;;;;;8.82;32.83;102221.50;6156641;28;20651;-56
2021/04/26 07:48:11;;;;;;;1.87;1.20;;;;;;;9.68;32.34;102217.03;6160128;28;20346;-51
2021/04/26 07:51:32;;;;;;;4.37;1.87;;;;;;;9.88;31.25;102217.34;6155322;28;20227;-57
2021/04/26 07:54:52;;;;;;;5.13;3.20;;;;;;;10.20;31.38;102224.81;6147155;28;21015;-56
2021/04/26 07:58:13;;;;;;;1.60;1.40;;;;;;;9.22;32.87;102222.25;6163417;28;20245;-57
2021/04/26 08:01:33;;;;;;;4.07;1.50;;;;;;;9.94;32.01;102220.03;6154793;28;20498;-55
2021/04/26 08:04:55;;;;;;;2.63;1.37;;;;;;;10.26;30.28;102211.88;6157923;28;20230;-57
2021/04/26 08:08:15;;;;;;;3.50;1.37;;;;;;;10.20;30.87;102210.03;6165885;28;20238;-56
2021/04/26 08:11:36;;;;;;;3.47;1.30;;;;;;;11.32;29.87;102209.69;6159989;28;20230;-54
2021/04/26 08:14:56;;;;;;;4.50;1.10;;;;;;;11.83;28.52;102208.44;6161681;28;20523;-56
2021/04/26 08:18:17;;;;;;;1.27;1.07;;;;;;;10.06;30.24;102208.94;6164936;28;20619;-54
2021/04/26 08:21:39;;;;;;;2.93;1.20;;;;;;;10.41;29.24;102201.69;6162090;28;20234;-55
2021/04/26 08:24:59;;;;;;;3.23;1.47;;;;;;;11.16;28.16;102204.31;6164296;28;20250;-51
2021/04/26 08:28:20;;;;;;;1.40;1.30;;;;;;;10.56;29.29;102200.16;6161589;28;20234;-57
2021/04/26 08:31:40;;;;;;;6.50;1.03;;;;;;;10.87;29.74;102203.13;6157662;28;20243;-56
2021/04/26 08:35:02;;;;;;;1.40;1.20;;;;;;;10.89;29.00;102193.59;6159626;28;20713;-53
2021/04/26 08:38:23;;;;;;;3.13;1.33;;;;;;;11.63;28.50;102190.88;6163098;28;20255;-54
2021/04/26 08:41:46;;;;;;;4.00;1.77;;;;;;;11.48;28.67;102190.75;6172833;28;20666;-54
2021/04/26 08:45:10;;;;;;;6.67;1.97;;;;;;;10.95;29.47;102193.66;6163073;28;20238;-54
2021/04/26 08:48:30;;;;;;;2.83;1.63;;;;;;;11.15;28.84;102186.09;6155922;28;20230;-54
2021/04/26 08:51:51;;;;;;;1.77;1.03;;;;;;;10.44;29.13;102191.31;6151964;28;20239;-52
2021/04/26 08:55:14;;;;;;;3.80;1.50;;;;;;;11.00;30.35;102181.56;6155806;28;20230;-55
2021/04/26 08:58:35;;;;;;;2.93;1.23;;;;;;;10.95;29.61;102185.84;6160557;28;20416;-57
2021/04/26 09:02:00;;;;;;;3.77;1.20;;;;;;;10.59;29.43;102184.56;6147268;28;20616;-54
2021/04/26 09:05:23;;;;;;;2.00;1.40;;;;;;;9.61;30.19;102179.63;6141732;28;20225;-54
2021/04/26 09:08:49;;;;;;;4.97;1.40;;;;;;;10.30;31.39;102177.25;6157572;28;20317;-53
2021/04/26 09:12:12;;;;;;;3.23;1.37;;;;;;;10.80;28.89;102178.75;6153188;28;20242;-56
2021/04/26 09:15:49;;;;;;;4.50;2.30;;;;;;;10.76;29.25;102162.19;6155914;28;20332;-54
2021/04/26 09:19:10;;;;;;;1.93;0.93;;;;;;;11.69;27.82;102157.84;6156570;28;20238;-54
2021/04/26 09:22:46;;;;;;;2.60;1.20;;;;;;;10.68;28.98;102161.22;6163202;28;20590;-54
2021/04/26 09:26:23;;;;;;;2.33;1.43;;;;;;;10.67;29.13;102163.81;6154340;28;20238;-58
2021/04/26 09:29:44;;;;;;;2.57;1.10;;;;;;;11.59;27.77;102152.59;6152090;28;20234;-57
2021/04/26 09:33:28;;;;;;;1.93;1.80;;;;;;;11.61;28.67;102157.78;6161262;28;20236;-54
2021/04/26 09:36:50;;;;;;;1.93;1.20;;;;;;;11.35;27.67;102149.75;6146105;28;20641;-56
2021/04/26 09:40:14;;;;;;;1.93;1.80;;;;;;;11.37;27.96;102135.00;6160759;28;20559;-57
2021/04/26 09:43:35;;;;;;;2.10;1.20;;;;;;;12.10;26.79;102136.44;6154693;28;21821;-56
2021/04/26 09:46:57;;;;;;;3.03;1.40;;;;;;;12.06;27.50;102139.84;6161021;28;20228;-56
2021/04/26 09:50:18;;;;;;;1.70;1.33;;;;;;;11.40;27.92;102135.91;6157605;28;20863;-57
2021/04/26 09:53:51;;;;;;;2.50;1.43;;;;;;;12.36;27.52;102126.97;6150834;28;20234;-56
2021/04/26 09:57:12;;;;;;;3.50;1.67;;;;;;;12.27;26.27;102133.88;6154518;28;21030;-56
2021/04/26 10:00:33;;;;;;;1.80;1.47;;;;;;;12.36;26.37;102132.19;6153866;28;20278;-56
2021/04/26 10:03:55;;;;;;;2.57;1.60;;;;;;;12.19;24.82;102120.78;6152997;28;20249;-51
2021/04/26 10:07:15;;;;;;;2.90;1.20;;;;;;;12.32;24.91;102125.22;6162405;28;20663;-54
2021/04/26 10:10:36;;;;;;;4.73;4.30;;;;;;;14.57;23.45;102114.75;6153229;28;20258;-59
2021/04/26 10:14:01;;;;;;;3.77;3.07;;;;;;;15.01;23.27;102111.00;6154745;28;20227;-57
2021/04/26 10:17:23;;;;;;;6.63;4.03;;;;;;;14.73;22.59;102108.56;6157330;28;20235;-57
2021/04/26 10:20:45;;;;;;;8.97;8.13;;;;;;;15.55;22.40;102102.69;6148683;28;20262;-56
2021/04/26 10:24:16;;;;;;;10.10;9.13;;;;;;;15.71;22.52;102098.16;6156261;28;20567;-52
2021/04/26 10:27:39;;;;;;;5.10;4.70;;;;;;;16.49;21.46;102094.63;6149754;28;20234;-56
2021/04/26 10:31:04;;;;;;;5.13;4.63;;;;;;;16.60;20.65;102086.63;6137567;28;20616;-56
2021/04/26 10:34:26;;;;;;;4.13;3.83;;;;;;;15.74;21.79;102093.78;6159509;28;20231;-55
2021/04/26 10:37:48;;;;;;;1.90;1.50;;;;;;;13.70;22.10;102089.69;6157876;28;20227;-57
2021/04/26 10:41:10;;;;;;;4.93;2.57;;;;;;;15.67;21.69;102075.44;6159821;28;20230;-56
2021/04/26 10:44:52;;;;;;;3.10;2.77;;;;;;;16.21;21.19;102070.50;6151922;28;20340;-54
2021/04/26 10:48:13;;;;;;;3.80;1.93;;;;;;;16.42;20.61;102066.72;6158090;28;20255;-54
2021/04/26 10:51:34;;;;;;;2.00;1.70;;;;;;;16.06;19.94;102060.16;6154811;28;20335;-55
2021/04/26 10:54:56;;;;;;;1.60;1.20;;;;;;;15.42;20.49;102062.56;6146479;28;20318;-57
2021/04/26 10:58:34;;;;;;;2.07;1.33;;;;;;;13.49;22.16;102061.81;6154905;28;20604;-58
2021/04/26 11:01:55;;;;;;;3.60;1.40;;;;;;;15.64;20.90;102049.22;6155314;28;20234;-50
2021/04/26 11:05:16;;;;;;;3.50;1.70;;;;;;;14.88;20.75;102042.00;6155179;28;20235;-56
2021/04/26 11:08:40;;;;;;;2.63;1.77;;;;;;;14.37;21.86;102042.31;6160583;28;20227;-53
2021/04/26 11:12:04;;;;;;;1.80;1.40;;;;;;;12.31;23.87;102046.84;6164115;28;20219;-54
2021/04/26 11:15:27;;;;;;;3.00;1.97;;;;;;;13.20;22.99;102039.13;6161857;28;20227;-58
2021/04/26 11:19:09;;;;;;;2.47;2.13;;;;;;;14.32;22.14;102036.22;6163891;28;20246;-55
2021/04/26 11:22:34;;;;;;;2.00;1.80;;;;;;;15.60;22.31;102024.75;6159446;28;20234;-50
2021/04/26 11:26:11;;;;;;;1.90;1.63;;;;;;;16.70;22.27;102019.81;6159771;28;20656;-53
2021/04/26 11:29:33;;;;;;;2.80;2.10;;;;;;;17.75;20.10;102007.47;6157682;28;20305;-55
2021/04/26 11:33:17;;;;;;;4.20;1.50;;;;;;;17.06;20.21;102012.28;6161786;28;20234;-59
2021/04/26 11:36:38;;;;;;;1.83;1.67;;;;;;;16.77;20.83;102009.19;6155955;28;20231;-54
2021/04/26 11:39:59;;;;;;;2.87;1.30;;;;;;;16.60;21.38;102002.47;6157181;28;20238;-56
2021/04/26 11:43:20;;;;;;;2.90;1.30;;;;;;;17.86;19.80;101995.00;6157754;28;20242;-55
2021/04/26 11:46:41;;;;;;;1.30;1.20;;;;;;;17.92;19.14;101995.78;6157416;28;20581;-53
2021/04/26 11:50:04;;;;;;;3.70;1.97;;;;;;;17.76;19.68;101990.78;6163330;28;20647;-52
2021/04/26 11:53:29;;;;;;;2.50;1.87;;;;;;;18.44;18.76;101987.56;6162257;28;20238;-57
2021/04/26 11:57:05;;;;;;;1.37;1.27;;;;;;;17.10;19.55;101987.63;6156825;28;20223;-56
2021/04/26 12:00:28;;;;;;;2.20;1.30;;;;;;;16.27;19.35;101981.03;6158829;28;20226;-54
2021/04/26 12:03:57;;;;;;;2.40;1.57;;;;;;;17.08;20.84;101983.31;6159577;28;20318;-54
2021/04/26 12:07:18;;;;;;;4.37;1.87;;;;;;;17.51;19.49;101975.47;6160675;28;20234;-53
2021/04/26 12:10:40;;;;;;;3.93;1.67;;;;;;;18.12;19.02;101972.47;6165603;28;20246;-57
2021/04/26 12:14:09;;;;;;;1.30;1.20;;;;;;;17.29;18.81;101977.66;6163702;28;20253;-56
2021/04/26 12:17:31;;;;;;;2.30;1.70;;;;;;;16.71;19.95;101966.34;6163213;28;20257;-56
2021/04/26 12:20:53;;;;;;;3.57;1.63;;;;;;;16.21;20.29;101961.88;6161207;28;20238;-57
2021/04/26 12:24:14;;;;;;;1.70;1.40;;;;;;;16.95;19.61;101960.72;6163400;28;20227;-52
2021/04/26 12:27:36;;;;;;;2.07;1.40;;;;;;;17.51;19.15;101959.66;6164452;28;20317;-58
2021/04/26 12:30:56;;;;;;;4.73;2.70;;;;;;;17.96;19.00;101950.00;6143589;28;20230;-56
2021/04/26 12:34:17;;;;;;;5.93;3.00;;;;;;;17.47;18.65;101941.34;6162244;28;20238;-56
2021/04/26 12:37:40;;;;;;;3.37;3.07;;;;;;;17.43;19.56;101947.56;6163427;28;20266;-55
2021/04/26 12:41:02;;;;;;;2.90;2.00;;;;;;;18.07;18.68;101934.81;6160643;28;20321;-53
2021/04/26 12:44:24;;;;;;;2.60;1.70;;;;;;;17.19;19.30;101943.63;6163609;28;20285;-56
2021/04/26 12:47:50;;;;;;;1.70;1.60;;;;;;;17.51;18.26;101941.22;6160781;28;20242;-55
2021/04/26 12:51:11;;;;;;;1.90;1.70;;;;;;;17.36;18.58;101941.53;6162386;28;20222;-57
2021/04/26 12:54:32;;;;;;;1.97;1.77;;;;;;;16.07;19.56;101931.41;6162355;28;20238;-57
2021/04/26 12:58:04;;;;;;;4.33;2.03;;;;;;;15.95;20.08;101931.56;6162275;28;20230;-56
2021/04/26 13:01:26;;;;;;;1.77;1.67;;;;;;;14.64;20.54;101927.72;6162872;28;20707;-52
2021/04/26 13:04:46;;;;;;;2.53;1.63;;;;;;;13.13;22.86;101933.63;6156444;28;20243;-57
2021/04/26 13:08:07;;;;;;;3.63;1.70;;;;;;;12.40;23.92;101931.91;6163417;28;20242;-55
2021/04/26 13:11:31;;;;;;;2.77;2.10;;;;;;;15.16;21.22;101919.34;6161522;28;20313;-54
2021/04/26 13:14:52;;;;;;;2.13;1.37;;;;;;;16.21;20.29;101906.69;6161669;28;20242;-56
2021/04/26 13:18:14;;;;;;;4.07;2.33;;;;;;;15.56;20.05;101911.00;6165379;28;20318;-54
2021/04/26 13:21:36;;;;;;;3.53;1.80;;;;;;;16.46;19.21;101899.25;6161628;28;20242;-56
2021/04/26 13:24:58;;;;;;;2.73;1.63;;;;;;;20.19;15.91;101896.53;6151196;28;20242;-57
2021/04/26 13:28:35;;;;;;;2.93;1.60;;;;;;;21.07;15.31;101883.84;6162156;28;20230;-54
2021/04/26 13:31:59;;;;;;;4.00;1.97;;;;;;;19.63;16.45;101870.91;6161590;28;20250;-57
2021/04/26 13:35:20;;;;;;;2.93;2.20;;;;;;;17.00;18.42;101880.81;6151576;28;20263;-57
2021/04/26 13:38:40;;;;;;;5.50;2.27;;;;;;;16.45;19.92;101879.13;6162640;28;20235;-55
2021/04/26 13:42:05;;;;;;;2.13;1.80;;;;;;;14.43;20.95;101880.69;6164709;28;20234;-56
2021/04/26 13:45:26;;;;;;;3.77;3.00;;;;;;;15.53;20.94;101874.31;6163152;28;20234;-53
2021/04/26 13:48:47;;;;;;;3.67;2.23;;;;;;;16.06;20.43;101866.59;6161614;28;20231;-55
2021/04/26 13:52:07;;;;;;;2.93;2.03;;;;;;;16.59;21.50;101868.38;6154821;28;20239;-54
2021/04/26 13:55:28;;;;;;;3.27;2.27;;;;;;;16.61;21.60;101858.69;6159960;28;20231;-56
2021/04/26 13:58:49;;;;;;;2.07;1.67;;;;;;;16.01;20.86;101847.38;6159810;28;20234;-52
2021/04/26 14:02:10;;;;;;;2.60;1.80;;;;;;;16.54;20.62;101853.53;6155250;28;20328;-51
2021/04/26 14:05:32;;;;;;;3.23;2.27;;;;;;;16.42;20.70;101840.63;6153493;28;20226;-59
2021/04/26 14:08:53;;;;;;;2.33;1.70;;;;;;;14.87;23.10;101837.47;6153796;28;20313;-55
2021/04/26 14:12:13;;;;;;;2.47;1.50;;;;;;;14.66;22.77;101835.94;6162530;28;20939;-58
2021/04/26 14:15:34;;;;;;;3.70;1.80;;;;;;;15.39;23.75;101834.22;6162287;28;20223;-58
2021/04/26 14:18:55;;;;;;;4.53;2.23;;;;;;;15.35;22.67;101837.78;6152526;28;20238;-56
2021/04/26 14:22:18;;;;;;;6.17;2.13;;;;;;;15.35;22.77;101825.53;6156173;28;20335;-57
2021/04/26 14:25:39;;;;;;;2.90;2.00;;;;;;;15.74;21.95;101831.16;6147942;28;20317;-57
2021/04/26 14:29:00;;;;;;;2.90;1.90;;;;;;;15.50;22.73;101827.06;6155986;28;20239;-54
2021/04/26 14:32:21;;;;;;;3.50;2.23;;;;;;;15.66;22.68;101819.00;6161108;28;20321;-55
2021/04/26 14:35:42;;;;;;;4.60;4.07;;;;;;;15.89;22.79;101822.19;6155142;28;20230;-52
2021/04/26 14:39:05;;;;;;;4.97;2.77;;;;;;;16.06;22.79;101814.03;6150855;28;20227;-53
2021/04/26 14:42:25;;;;;;;4.30;2.00;;;;;;;15.80;22.67;101819.72;6152411;28;20317;-52
2021/04/26 14:45:46;;;;;;;2.60;1.50;;;;;;;15.84;22.18;101810.88;6156738;28;20230;-55
2021/04/26 14:49:07;;;;;;;2.20;1.60;;;;;;;15.80;22.73;101808.31;6149173;28;20811;-52
2021/04/26 14:52:28;;;;;;;2.83;2.00;;;;;;;15.66;23.70;101800.59;6147413;28;20329;-53
2021/04/26 14:55:48;;;;;;;2.53;1.70;;;;;;;15.31;22.60;101799.34;6157619;28;20230;-53
2021/04/26 14:59:09;;;;;;;5.83;1.83;;;;;;;14.99;22.18;101805.00;6155394;28;20235;-54
2021/04/26 15:02:29;;;;;;;2.73;2.07;;;;;;;14.42;22.71;101797.69;6158166;28;20250;-53
2021/04/26 15:05:50;;;;;;;1.87;1.57;;;;;;;14.81;22.56;101793.84;6155578;28;20617;-52
2021/04/26 15:09:11;;;;;;;3.70;2.13;;;;;;;15.02;22.82;101779.59;6151241;28;20250;-50
2021/04/26 15:12:32;;;;;;;2.60;2.23;;;;;;;14.58;23.02;101794.09;6157527;28;20227;-53
2021/04/26 15:15:53;;;;;;;3.37;1.90;;;;;;;14.76;22.70;101786.00;6164909;28;20325;-54
2021/04/26 15:19:13;;;;;;;4.23;1.90;;;;;;;14.91;22.65;101786.75;6159398;28;20652;-55
2021/04/26 15:22:34;;;;;;;2.03;1.63;;;;;;;15.00;22.33;101785.75;6166661;28;20345;-53
2021/04/26 15:25:56;;;;;;;4.03;2.00;;;;;;;14.95;22.33;101776.19;6163674;28;20250;-56
2021/04/26 15:29:17;;;;;;;6.60;2.17;;;;;;;15.02;22.50;101782.22;6159474;28;20226;-57
2021/04/26 15:32:37;;;;;;;4.93;2.03;;;;;;;15.26;23.92;101781.03;6151096;28;20250;-58
2021/04/26 15:35:58;;;;;;;1.27;1.17;;;;;;;15.16;24.89;101767.19;6156002;28;20247;-57
2021/04/26 15:39:18;;;;;;;3.13;2.00;;;;;;;15.54;27.83;101768.38;6156668;28;20234;-57
2021/04/26 15:42:39;;;;;;;2.77;1.60;;;;;;;15.84;25.15;101763.63;6154487;28;20234;-56
2021/04/26 15:46:00;;;;;;;4.37;1.93;;;;;;;15.36;25.66;101766.03;6135474;28;20227;-57
2021/04/26 15:49:20;;;;;;;3.80;2.40;;;;;;;15.05;25.64;101760.34;6168149;28;20230;-57
2021/04/26 15:52:41;;;;;;;3.30;3.00;;;;;;;14.84;24.97;101770.19;6150155;28;20238;-57